sensor_id;sensor_type;location;lat;lon;timestamp;P1;durP1;ratioP1;P2;durP2;ratioP2
66523;SDS011;53350;52.210;5.160;2022-11-20T00:01:07;17.85;;;9.48;;
66523;SDS011;53350;52.210;5.160;2022-11-20T00:03:34;16.95;;;8.80;;
66523;SDS011;53350;52.210;5.160;2022-11-20T00:06:01;16.88;;;8.82;;
66523;SDS011;53350;52.210;5.160;2022-11-20T00:08:29;17.42;;;9.27;;
66523;SDS011;53350;52.210;5.160;2022-11-20T00:10:56;15.35;;;9.07;;
66523;SDS011;53350;52.210;5.160;2022-11-20T00:13:22;15.10;;;8.57;;
66523;SDS011;53350;52.210;5.160;2022-11-20T00:15:56;15.10;;;8.95;;
66523;SDS011;53350;52.210;5.160;2022-11-20T00:18:23;15.65;;;7.90;;
66523;SDS011;53350;52.210;5.160;2022-11-20T00:20:50;16.33;;;8.45;;
66523;SDS011;53350;52.210;5.160;2022-11-20T00:23:16;13.82;;;8.68;;
66523;SDS011;53350;52.210;5.160;2022-11-20T00:25:44;13.20;;;7.75;;
66523;SDS011;53350;52.210;5.160;2022-11-20T00:28:10;14.98;;;7.95;;
66523;SDS011;53350;52.210;5.160;2022-11-20T00:30:37;15.43;;;7.85;;
66523;SDS011;53350;52.210;5.160;2022-11-20T00:33:04;14.90;;;8.30;;
66523;SDS011;53350;52.210;5.160;2022-11-20T00:35:30;15.13;;;7.93;;
66523;SDS011;53350;52.210;5.160;2022-11-20T00:37:57;13.90;;;7.78;;
66523;SDS011;53350;52.210;5.160;2022-11-20T00:40:23;14.55;;;8.52;;
66523;SDS011;53350;52.210;5.160;2022-11-20T00:42:51;17.38;;;9.35;;
66523;SDS011;53350;52.210;5.160;2022-11-20T00:45:17;16.80;;;9.52;;
66523;SDS011;53350;52.210;5.160;2022-11-20T00:47:44;21.20;;;9.00;;
66523;SDS011;53350;52.210;5.160;2022-11-20T00:50:10;16.70;;;8.88;;
66523;SDS011;53350;52.210;5.160;2022-11-20T00:52:37;17.35;;;9.68;;
66523;SDS011;53350;52.210;5.160;2022-11-20T00:55:04;16.95;;;8.82;;
66523;SDS011;53350;52.210;5.160;2022-11-20T00:57:31;18.52;;;10.05;;
66523;SDS011;53350;52.210;5.160;2022-11-20T00:59:59;20.70;;;10.20;;
66523;SDS011;53350;52.210;5.160;2022-11-20T01:02:25;19.73;;;10.57;;
66523;SDS011;53350;52.210;5.160;2022-11-20T01:04:51;17.77;;;10.45;;
66523;SDS011;53350;52.210;5.160;2022-11-20T01:07:18;20.10;;;9.75;;
66523;SDS011;53350;52.210;5.160;2022-11-20T01:09:44;18.67;;;10.13;;
66523;SDS011;53350;52.210;5.160;2022-11-20T01:12:11;18.15;;;9.77;;
66523;SDS011;53350;52.210;5.160;2022-11-20T01:14:37;23.17;;;9.55;;
66523;SDS011;53350;52.210;5.160;2022-11-20T01:17:05;17.38;;;9.25;;
66523;SDS011;53350;52.210;5.160;2022-11-20T01:19:31;16.73;;;9.95;;
66523;SDS011;53350;52.210;5.160;2022-11-20T01:21:58;16.35;;;9.90;;
66523;SDS011;53350;52.210;5.160;2022-11-20T01:24:24;18.88;;;9.98;;
66523;SDS011;53350;52.210;5.160;2022-11-20T01:26:51;16.73;;;9.45;;
66523;SDS011;53350;52.210;5.160;2022-11-20T01:29:18;16.25;;;8.65;;
66523;SDS011;53350;52.210;5.160;2022-11-20T01:34:15;14.50;;;9.13;;
66523;SDS011;53350;52.210;5.160;2022-11-20T01:36:43;16.67;;;8.88;;
66523;SDS011;53350;52.210;5.160;2022-11-20T01:39:10;16.90;;;9.32;;
66523;SDS011;53350;52.210;5.160;2022-11-20T01:41:38;17.00;;;9.80;;
66523;SDS011;53350;52.210;5.160;2022-11-20T01:44:20;17.83;;;10.02;;
66523;SDS011;53350;52.210;5.160;2022-11-20T01:46:51;16.25;;;9.13;;
66523;SDS011;53350;52.210;5.160;2022-11-20T01:49:23;17.90;;;9.10;;
66523;SDS011;53350;52.210;5.160;2022-11-20T01:51:53;16.77;;;9.10;;
66523;SDS011;53350;52.210;5.160;2022-11-20T01:54:23;15.32;;;8.93;;
66523;SDS011;53350;52.210;5.160;2022-11-20T01:56:56;17.15;;;8.95;;
66523;SDS011;53350;52.210;5.160;2022-11-20T01:59:25;16.13;;;9.23;;
66523;SDS011;53350;52.210;5.160;2022-11-20T02:01:54;16.77;;;8.73;;
66523;SDS011;53350;52.210;5.160;2022-11-20T02:04:22;16.55;;;9.52;;
66523;SDS011;53350;52.210;5.160;2022-11-20T02:06:51;17.27;;;8.45;;
66523;SDS011;53350;52.210;5.160;2022-11-20T02:09:23;15.85;;;9.48;;
66523;SDS011;53350;52.210;5.160;2022-11-20T02:11:49;14.55;;;8.77;;
66523;SDS011;53350;52.210;5.160;2022-11-20T02:14:16;16.58;;;9.25;;
66523;SDS011;53350;52.210;5.160;2022-11-20T02:16:43;16.30;;;8.20;;
66523;SDS011;53350;52.210;5.160;2022-11-20T02:19:13;16.23;;;8.65;;
66523;SDS011;53350;52.210;5.160;2022-11-20T02:21:51;17.42;;;8.93;;
66523;SDS011;53350;52.210;5.160;2022-11-20T02:24:27;15.80;;;8.80;;
66523;SDS011;53350;52.210;5.160;2022-11-20T02:26:54;13.77;;;8.15;;
66523;SDS011;53350;52.210;5.160;2022-11-20T02:29:24;13.77;;;8.05;;
66523;SDS011;53350;52.210;5.160;2022-11-20T02:31:54;14.90;;;8.32;;
66523;SDS011;53350;52.210;5.160;2022-11-20T02:36:49;14.10;;;7.30;;
66523;SDS011;53350;52.210;5.160;2022-11-20T02:39:18;15.48;;;8.43;;
66523;SDS011;53350;52.210;5.160;2022-11-20T02:41:47;13.88;;;8.05;;
66523;SDS011;53350;52.210;5.160;2022-11-20T02:44:14;13.53;;;8.00;;
66523;SDS011;53350;52.210;5.160;2022-11-20T02:46:40;17.63;;;8.45;;
66523;SDS011;53350;52.210;5.160;2022-11-20T02:49:07;14.65;;;7.88;;
66523;SDS011;53350;52.210;5.160;2022-11-20T02:51:33;15.82;;;9.13;;
66523;SDS011;53350;52.210;5.160;2022-11-20T02:53:59;16.75;;;8.00;;
66523;SDS011;53350;52.210;5.160;2022-11-20T02:56:26;13.05;;;7.38;;
66523;SDS011;53350;52.210;5.160;2022-11-20T02:58:54;12.43;;;7.25;;
66523;SDS011;53350;52.210;5.160;2022-11-20T03:01:21;14.63;;;8.10;;
66523;SDS011;53350;52.210;5.160;2022-11-20T03:03:47;15.48;;;8.48;;
66523;SDS011;53350;52.210;5.160;2022-11-20T03:06:14;16.50;;;8.27;;
66523;SDS011;53350;52.210;5.160;2022-11-20T03:08:41;15.48;;;8.48;;
66523;SDS011;53350;52.210;5.160;2022-11-20T03:11:08;15.38;;;8.60;;
66523;SDS011;53350;52.210;5.160;2022-11-20T03:13:35;15.80;;;9.00;;
66523;SDS011;53350;52.210;5.160;2022-11-20T03:16:07;14.65;;;8.15;;
66523;SDS011;53350;52.210;5.160;2022-11-20T03:18:35;13.52;;;7.78;;
66523;SDS011;53350;52.210;5.160;2022-11-20T03:21:01;14.55;;;8.43;;
66523;SDS011;53350;52.210;5.160;2022-11-20T03:23:28;15.23;;;7.88;;
66523;SDS011;53350;52.210;5.160;2022-11-20T03:26:06;17.00;;;8.52;;
66523;SDS011;53350;52.210;5.160;2022-11-20T03:28:33;15.80;;;7.97;;
66523;SDS011;53350;52.210;5.160;2022-11-20T03:31:04;18.48;;;9.20;;
66523;SDS011;53350;52.210;5.160;2022-11-20T03:33:33;22.95;;;12.02;;
66523;SDS011;53350;52.210;5.160;2022-11-20T03:36:00;19.92;;;10.10;;
66523;SDS011;53350;52.210;5.160;2022-11-20T03:38:28;14.68;;;7.80;;
66523;SDS011;53350;52.210;5.160;2022-11-20T03:40:57;15.20;;;7.97;;
66523;SDS011;53350;52.210;5.160;2022-11-20T03:43:24;13.75;;;8.10;;
66523;SDS011;53350;52.210;5.160;2022-11-20T03:45:51;17.38;;;9.02;;
66523;SDS011;53350;52.210;5.160;2022-11-20T03:48:19;15.95;;;9.02;;
66523;SDS011;53350;52.210;5.160;2022-11-20T03:50:45;17.27;;;9.05;;
66523;SDS011;53350;52.210;5.160;2022-11-20T03:53:12;17.90;;;8.93;;
66523;SDS011;53350;52.210;5.160;2022-11-20T03:55:39;16.30;;;9.32;;
66523;SDS011;53350;52.210;5.160;2022-11-20T03:58:05;16.23;;;8.80;;
66523;SDS011;53350;52.210;5.160;2022-11-20T04:00:32;15.70;;;8.35;;
66523;SDS011;53350;52.210;5.160;2022-11-20T04:02:58;19.02;;;9.13;;
66523;SDS011;53350;52.210;5.160;2022-11-20T04:05:26;15.73;;;8.40;;
66523;SDS011;53350;52.210;5.160;2022-11-20T04:07:52;15.50;;;8.40;;
66523;SDS011;53350;52.210;5.160;2022-11-20T04:10:19;14.80;;;8.30;;
66523;SDS011;53350;52.210;5.160;2022-11-20T04:12:46;16.35;;;8.95;;
66523;SDS011;53350;52.210;5.160;2022-11-20T04:15:12;14.73;;;7.82;;
66523;SDS011;53350;52.210;5.160;2022-11-20T04:17:39;17.33;;;8.75;;
66523;SDS011;53350;52.210;5.160;2022-11-20T04:20:06;14.25;;;7.95;;
66523;SDS011;53350;52.210;5.160;2022-11-20T04:22:34;16.38;;;8.52;;
66523;SDS011;53350;52.210;5.160;2022-11-20T04:25:01;16.63;;;9.30;;
66523;SDS011;53350;52.210;5.160;2022-11-20T04:27:27;18.38;;;8.80;;
66523;SDS011;53350;52.210;5.160;2022-11-20T04:29:53;15.23;;;7.88;;
66523;SDS011;53350;52.210;5.160;2022-11-20T04:32:20;14.27;;;7.68;;
66523;SDS011;53350;52.210;5.160;2022-11-20T04:34:46;14.93;;;8.30;;
66523;SDS011;53350;52.210;5.160;2022-11-20T04:37:13;13.85;;;8.05;;
66523;SDS011;53350;52.210;5.160;2022-11-20T04:39:41;17.35;;;8.73;;
66523;SDS011;53350;52.210;5.160;2022-11-20T04:42:08;13.82;;;8.10;;
66523;SDS011;53350;52.210;5.160;2022-11-20T04:44:51;16.95;;;8.80;;
66523;SDS011;53350;52.210;5.160;2022-11-20T04:47:18;14.27;;;8.43;;
66523;SDS011;53350;52.210;5.160;2022-11-20T04:49:44;18.65;;;8.00;;
66523;SDS011;53350;52.210;5.160;2022-11-20T04:52:11;17.50;;;8.98;;
66523;SDS011;53350;52.210;5.160;2022-11-20T04:54:37;17.73;;;7.97;;
66523;SDS011;53350;52.210;5.160;2022-11-20T04:57:05;16.02;;;8.02;;
66523;SDS011;53350;52.210;5.160;2022-11-20T04:59:31;17.27;;;8.85;;
66523;SDS011;53350;52.210;5.160;2022-11-20T05:01:58;16.33;;;8.82;;
66523;SDS011;53350;52.210;5.160;2022-11-20T05:04:24;15.90;;;8.15;;
66523;SDS011;53350;52.210;5.160;2022-11-20T05:06:51;15.23;;;8.10;;
66523;SDS011;53350;52.210;5.160;2022-11-20T05:09:17;14.65;;;8.23;;
66523;SDS011;53350;52.210;5.160;2022-11-20T05:11:44;15.55;;;8.23;;
66523;SDS011;53350;52.210;5.160;2022-11-20T05:14:11;17.08;;;8.65;;
66523;SDS011;53350;52.210;5.160;2022-11-20T05:16:38;14.40;;;8.15;;
66523;SDS011;53350;52.210;5.160;2022-11-20T05:19:04;15.23;;;8.70;;
66523;SDS011;53350;52.210;5.160;2022-11-20T05:21:31;15.52;;;7.55;;
66523;SDS011;53350;52.210;5.160;2022-11-20T05:23:57;16.25;;;8.68;;
66523;SDS011;53350;52.210;5.160;2022-11-20T05:26:24;15.50;;;8.05;;
66523;SDS011;53350;52.210;5.160;2022-11-20T05:28:50;14.80;;;7.47;;
66523;SDS011;53350;52.210;5.160;2022-11-20T05:31:19;12.95;;;7.75;;
66523;SDS011;53350;52.210;5.160;2022-11-20T05:33:47;13.38;;;7.72;;
66523;SDS011;53350;52.210;5.160;2022-11-20T05:36:14;13.82;;;7.65;;
66523;SDS011;53350;52.210;5.160;2022-11-20T05:38:41;14.18;;;7.80;;
66523;SDS011;53350;52.210;5.160;2022-11-20T05:41:09;12.77;;;7.07;;
66523;SDS011;53350;52.210;5.160;2022-11-20T05:43:38;14.13;;;7.88;;
66523;SDS011;53350;52.210;5.160;2022-11-20T05:48:35;15.32;;;8.07;;
66523;SDS011;53350;52.210;5.160;2022-11-20T05:53:29;16.00;;;8.27;;
66523;SDS011;53350;52.210;5.160;2022-11-20T05:55:56;13.90;;;7.22;;
66523;SDS011;53350;52.210;5.160;2022-11-20T05:58:23;15.45;;;8.43;;
66523;SDS011;53350;52.210;5.160;2022-11-20T06:00:50;14.77;;;8.45;;
66523;SDS011;53350;52.210;5.160;2022-11-20T06:03:16;14.00;;;8.50;;
66523;SDS011;53350;52.210;5.160;2022-11-20T06:05:44;14.73;;;8.10;;
66523;SDS011;53350;52.210;5.160;2022-11-20T06:08:11;14.52;;;8.43;;
66523;SDS011;53350;52.210;5.160;2022-11-20T06:10:37;14.05;;;7.85;;
66523;SDS011;53350;52.210;5.160;2022-11-20T06:13:04;15.15;;;8.30;;
66523;SDS011;53350;52.210;5.160;2022-11-20T06:15:30;13.98;;;8.55;;
66523;SDS011;53350;52.210;5.160;2022-11-20T06:17:57;14.93;;;8.55;;
66523;SDS011;53350;52.210;5.160;2022-11-20T06:20:23;16.00;;;8.30;;
66523;SDS011;53350;52.210;5.160;2022-11-20T06:22:51;15.15;;;8.02;;
66523;SDS011;53350;52.210;5.160;2022-11-20T06:25:18;15.10;;;8.95;;
66523;SDS011;53350;52.210;5.160;2022-11-20T06:27:44;14.68;;;8.52;;
66523;SDS011;53350;52.210;5.160;2022-11-20T06:30:11;15.63;;;8.32;;
66523;SDS011;53350;52.210;5.160;2022-11-20T06:32:38;15.52;;;8.88;;
66523;SDS011;53350;52.210;5.160;2022-11-20T06:35:05;16.35;;;9.27;;
66523;SDS011;53350;52.210;5.160;2022-11-20T06:37:32;13.15;;;7.70;;
66523;SDS011;53350;52.210;5.160;2022-11-20T06:39:59;13.85;;;8.18;;
66523;SDS011;53350;52.210;5.160;2022-11-20T06:42:26;19.13;;;8.82;;
66523;SDS011;53350;52.210;5.160;2022-11-20T06:44:52;17.25;;;9.45;;
66523;SDS011;53350;52.210;5.160;2022-11-20T06:47:19;17.13;;;9.65;;
66523;SDS011;53350;52.210;5.160;2022-11-20T06:49:45;14.68;;;8.50;;
66523;SDS011;53350;52.210;5.160;2022-11-20T06:52:11;18.15;;;9.00;;
66523;SDS011;53350;52.210;5.160;2022-11-20T06:54:38;15.38;;;8.88;;
66523;SDS011;53350;52.210;5.160;2022-11-20T06:57:06;16.58;;;9.18;;
66523;SDS011;53350;52.210;5.160;2022-11-20T06:59:32;16.38;;;9.40;;
66523;SDS011;53350;52.210;5.160;2022-11-20T07:01:58;17.42;;;9.18;;
66523;SDS011;53350;52.210;5.160;2022-11-20T07:04:25;17.55;;;9.23;;
66523;SDS011;53350;52.210;5.160;2022-11-20T07:06:51;17.08;;;9.20;;
66523;SDS011;53350;52.210;5.160;2022-11-20T07:09:18;15.82;;;8.50;;
66523;SDS011;53350;52.210;5.160;2022-11-20T07:11:44;15.65;;;8.45;;
66523;SDS011;53350;52.210;5.160;2022-11-20T07:14:12;18.80;;;9.68;;
66523;SDS011;53350;52.210;5.160;2022-11-20T07:16:38;18.58;;;9.38;;
66523;SDS011;53350;52.210;5.160;2022-11-20T07:19:05;15.95;;;9.25;;
66523;SDS011;53350;52.210;5.160;2022-11-20T07:21:32;18.70;;;9.18;;
66523;SDS011;53350;52.210;5.160;2022-11-20T07:23:58;17.63;;;9.55;;
66523;SDS011;53350;52.210;5.160;2022-11-20T07:26:24;17.63;;;9.90;;
66523;SDS011;53350;52.210;5.160;2022-11-20T07:28:51;16.45;;;9.88;;
66523;SDS011;53350;52.210;5.160;2022-11-20T07:31:19;20.38;;;10.75;;
66523;SDS011;53350;52.210;5.160;2022-11-20T07:33:45;19.20;;;9.98;;
66523;SDS011;53350;52.210;5.160;2022-11-20T07:36:12;17.33;;;9.35;;
66523;SDS011;53350;52.210;5.160;2022-11-20T07:38:38;19.80;;;10.73;;
66523;SDS011;53350;52.210;5.160;2022-11-20T07:41:04;20.70;;;10.63;;
66523;SDS011;53350;52.210;5.160;2022-11-20T07:43:31;18.00;;;10.95;;
66523;SDS011;53350;52.210;5.160;2022-11-20T07:45:58;17.75;;;9.98;;
66523;SDS011;53350;52.210;5.160;2022-11-20T07:48:26;18.73;;;10.60;;
66523;SDS011;53350;52.210;5.160;2022-11-20T07:50:53;18.33;;;10.80;;
66523;SDS011;53350;52.210;5.160;2022-11-20T07:53:20;20.87;;;10.73;;
66523;SDS011;53350;52.210;5.160;2022-11-20T07:55:47;20.17;;;10.95;;
66523;SDS011;53350;52.210;5.160;2022-11-20T07:58:14;18.80;;;10.73;;
66523;SDS011;53350;52.210;5.160;2022-11-20T08:00:40;20.65;;;10.65;;
66523;SDS011;53350;52.210;5.160;2022-11-20T08:03:07;19.13;;;11.73;;
66523;SDS011;53350;52.210;5.160;2022-11-20T08:05:34;18.42;;;10.73;;
66523;SDS011;53350;52.210;5.160;2022-11-20T08:08:02;21.40;;;11.02;;
66523;SDS011;53350;52.210;5.160;2022-11-20T08:10:28;20.75;;;12.27;;
66523;SDS011;53350;52.210;5.160;2022-11-20T08:12:55;21.30;;;12.65;;
66523;SDS011;53350;52.210;5.160;2022-11-20T08:15:39;20.40;;;11.52;;
66523;SDS011;53350;52.210;5.160;2022-11-20T08:18:07;20.98;;;11.45;;
66523;SDS011;53350;52.210;5.160;2022-11-20T08:20:37;19.30;;;10.98;;
66523;SDS011;53350;52.210;5.160;2022-11-20T08:25:31;20.88;;;10.93;;
66523;SDS011;53350;52.210;5.160;2022-11-20T08:27:59;17.83;;;10.50;;
66523;SDS011;53350;52.210;5.160;2022-11-20T08:30:27;18.60;;;11.65;;
66523;SDS011;53350;52.210;5.160;2022-11-20T08:32:54;20.45;;;11.80;;
66523;SDS011;53350;52.210;5.160;2022-11-20T08:35:26;17.60;;;10.88;;
66523;SDS011;53350;52.210;5.160;2022-11-20T08:37:53;18.08;;;10.15;;
66523;SDS011;53350;52.210;5.160;2022-11-20T08:40:20;16.92;;;10.15;;
66523;SDS011;53350;52.210;5.160;2022-11-20T08:42:47;22.10;;;11.43;;
66523;SDS011;53350;52.210;5.160;2022-11-20T08:45:14;17.73;;;10.30;;
66523;SDS011;53350;52.210;5.160;2022-11-20T08:47:41;42.80;;;22.80;;
66523;SDS011;53350;52.210;5.160;2022-11-20T08:50:08;64.07;;;34.85;;
66523;SDS011;53350;52.210;5.160;2022-11-20T08:52:34;22.77;;;13.65;;
66523;SDS011;53350;52.210;5.160;2022-11-20T08:55:02;19.42;;;11.18;;
66523;SDS011;53350;52.210;5.160;2022-11-20T08:57:30;19.40;;;12.27;;
66523;SDS011;53350;52.210;5.160;2022-11-20T08:59:57;20.05;;;12.60;;
66523;SDS011;53350;52.210;5.160;2022-11-20T09:02:24;20.35;;;12.93;;
66523;SDS011;53350;52.210;5.160;2022-11-20T09:04:50;27.23;;;17.27;;
66523;SDS011;53350;52.210;5.160;2022-11-20T09:07:18;20.75;;;11.82;;
66523;SDS011;53350;52.210;5.160;2022-11-20T09:09:44;18.55;;;11.50;;
66523;SDS011;53350;52.210;5.160;2022-11-20T09:12:12;19.45;;;13.35;;
66523;SDS011;53350;52.210;5.160;2022-11-20T09:14:39;20.30;;;14.27;;
66523;SDS011;53350;52.210;5.160;2022-11-20T09:17:05;19.48;;;12.50;;
66523;SDS011;53350;52.210;5.160;2022-11-20T09:19:32;22.67;;;12.52;;
66523;SDS011;53350;52.210;5.160;2022-11-20T09:21:59;17.25;;;11.43;;
66523;SDS011;53350;52.210;5.160;2022-11-20T09:24:26;17.73;;;11.02;;
66523;SDS011;53350;52.210;5.160;2022-11-20T09:26:52;22.90;;;12.95;;
66523;SDS011;53350;52.210;5.160;2022-11-20T09:29:20;20.23;;;12.10;;
66523;SDS011;53350;52.210;5.160;2022-11-20T09:31:47;19.27;;;11.77;;
66523;SDS011;53350;52.210;5.160;2022-11-20T09:34:13;19.67;;;11.15;;
66523;SDS011;53350;52.210;5.160;2022-11-20T09:36:40;21.70;;;11.68;;
66523;SDS011;53350;52.210;5.160;2022-11-20T09:39:06;19.73;;;12.32;;
66523;SDS011;53350;52.210;5.160;2022-11-20T09:41:56;24.90;;;12.93;;
66523;SDS011;53350;52.210;5.160;2022-11-20T09:44:40;22.13;;;12.88;;
66523;SDS011;53350;52.210;5.160;2022-11-20T09:47:16;19.48;;;12.05;;
66523;SDS011;53350;52.210;5.160;2022-11-20T09:49:55;20.85;;;13.18;;
66523;SDS011;53350;52.210;5.160;2022-11-20T09:52:32;106.40;;;46.95;;
66523;SDS011;53350;52.210;5.160;2022-11-20T09:55:08;80.10;;;36.80;;
66523;SDS011;53350;52.210;5.160;2022-11-20T09:57:39;120.95;;;51.50;;
66523;SDS011;53350;52.210;5.160;2022-11-20T10:00:11;95.22;;;41.53;;
66523;SDS011;53350;52.210;5.160;2022-11-20T10:02:40;135.75;;;55.30;;
66523;SDS011;53350;52.210;5.160;2022-11-20T10:05:15;45.08;;;22.95;;
66523;SDS011;53350;52.210;5.160;2022-11-20T10:07:46;36.58;;;18.92;;
66523;SDS011;53350;52.210;5.160;2022-11-20T10:10:21;86.15;;;40.80;;
66523;SDS011;53350;52.210;5.160;2022-11-20T10:13:17;52.28;;;26.35;;
66523;SDS011;53350;52.210;5.160;2022-11-20T10:15:58;65.27;;;34.97;;
66523;SDS011;53350;52.210;5.160;2022-11-20T10:18:48;25.83;;;17.63;;
66523;SDS011;53350;52.210;5.160;2022-11-20T10:21:26;30.65;;;15.80;;
66523;SDS011;53350;52.210;5.160;2022-11-20T10:27:05;24.58;;;15.00;;
66523;SDS011;53350;52.210;5.160;2022-11-20T10:29:42;25.58;;;14.27;;
66523;SDS011;53350;52.210;5.160;2022-11-20T10:32:16;23.77;;;13.60;;
66523;SDS011;53350;52.210;5.160;2022-11-20T10:34:46;25.30;;;14.10;;
66523;SDS011;53350;52.210;5.160;2022-11-20T10:37:17;21.73;;;12.98;;
66523;SDS011;53350;52.210;5.160;2022-11-20T10:39:49;67.32;;;38.63;;
66523;SDS011;53350;52.210;5.160;2022-11-20T10:42:24;34.05;;;20.48;;
66523;SDS011;53350;52.210;5.160;2022-11-20T10:44:58;27.92;;;16.70;;
66523;SDS011;53350;52.210;5.160;2022-11-20T10:47:37;27.17;;;16.15;;
66523;SDS011;53350;52.210;5.160;2022-11-20T10:50:04;21.52;;;14.00;;
66523;SDS011;53350;52.210;5.160;2022-11-20T10:52:37;26.13;;;14.35;;
66523;SDS011;53350;52.210;5.160;2022-11-20T10:55:18;28.83;;;16.33;;
66523;SDS011;53350;52.210;5.160;2022-11-20T10:57:52;34.60;;;16.85;;
66523;SDS011;53350;52.210;5.160;2022-11-20T11:00:25;29.95;;;16.30;;
66523;SDS011;53350;52.210;5.160;2022-11-20T11:02:53;28.73;;;15.63;;
66523;SDS011;53350;52.210;5.160;2022-11-20T11:05:25;26.45;;;16.45;;
66523;SDS011;53350;52.210;5.160;2022-11-20T11:07:59;24.33;;;14.13;;
66523;SDS011;53350;52.210;5.160;2022-11-20T11:10:28;23.95;;;15.30;;
66523;SDS011;53350;52.210;5.160;2022-11-20T11:13:02;23.77;;;14.02;;
66523;SDS011;53350;52.210;5.160;2022-11-20T11:15:29;27.08;;;15.48;;
66523;SDS011;53350;52.210;5.160;2022-11-20T11:18:04;24.10;;;12.85;;
66523;SDS011;53350;52.210;5.160;2022-11-20T11:20:31;26.58;;;14.38;;
66523;SDS011;53350;52.210;5.160;2022-11-20T11:22:58;25.65;;;15.23;;
66523;SDS011;53350;52.210;5.160;2022-11-20T11:25:26;27.37;;;15.90;;
66523;SDS011;53350;52.210;5.160;2022-11-20T11:27:55;25.80;;;13.88;;
66523;SDS011;53350;52.210;5.160;2022-11-20T11:30:24;24.48;;;13.93;;
66523;SDS011;53350;52.210;5.160;2022-11-20T11:33:03;27.70;;;15.98;;
66523;SDS011;53350;52.210;5.160;2022-11-20T11:38:02;24.42;;;14.13;;
66523;SDS011;53350;52.210;5.160;2022-11-20T11:40:31;26.73;;;15.15;;
66523;SDS011;53350;52.210;5.160;2022-11-20T11:42:59;26.67;;;16.00;;
66523;SDS011;53350;52.210;5.160;2022-11-20T11:45:28;29.38;;;15.65;;
66523;SDS011;53350;52.210;5.160;2022-11-20T11:47:55;27.88;;;15.65;;
66523;SDS011;53350;52.210;5.160;2022-11-20T11:50:25;26.58;;;14.60;;
66523;SDS011;53350;52.210;5.160;2022-11-20T11:55:40;28.02;;;18.08;;
66523;SDS011;53350;52.210;5.160;2022-11-20T11:58:11;30.40;;;16.75;;
66523;SDS011;53350;52.210;5.160;2022-11-20T12:00:45;32.08;;;16.88;;
66523;SDS011;53350;52.210;5.160;2022-11-20T12:03:21;34.47;;;18.65;;
66523;SDS011;53350;52.210;5.160;2022-11-20T12:05:55;33.55;;;17.52;;
66523;SDS011;53350;52.210;5.160;2022-11-20T12:08:25;35.40;;;19.52;;
66523;SDS011;53350;52.210;5.160;2022-11-20T12:10:58;26.30;;;13.15;;
66523;SDS011;53350;52.210;5.160;2022-11-20T12:16:19;37.90;;;19.30;;
66523;SDS011;53350;52.210;5.160;2022-11-20T12:18:47;35.13;;;18.73;;
66523;SDS011;53350;52.210;5.160;2022-11-20T12:21:22;36.78;;;19.15;;
66523;SDS011;53350;52.210;5.160;2022-11-20T12:24:06;32.83;;;18.90;;
66523;SDS011;53350;52.210;5.160;2022-11-20T12:26:50;33.03;;;18.15;;
66523;SDS011;53350;52.210;5.160;2022-11-20T12:29:31;23.90;;;12.35;;
66523;SDS011;53350;52.210;5.160;2022-11-20T12:32:14;30.50;;;17.58;;
66523;SDS011;53350;52.210;5.160;2022-11-20T12:35:11;34.78;;;17.98;;
66523;SDS011;53350;52.210;5.160;2022-11-20T12:37:52;35.92;;;20.00;;
66523;SDS011;53350;52.210;5.160;2022-11-20T12:40:34;29.95;;;16.35;;
66523;SDS011;53350;52.210;5.160;2022-11-20T12:43:08;34.60;;;18.13;;
66523;SDS011;53350;52.210;5.160;2022-11-20T12:46:08;28.30;;;15.57;;
66523;SDS011;53350;52.210;5.160;2022-11-20T12:49:04;38.20;;;18.92;;
66523;SDS011;53350;52.210;5.160;2022-11-20T12:51:47;34.85;;;19.88;;
66523;SDS011;53350;52.210;5.160;2022-11-20T12:54:29;34.67;;;20.13;;
66523;SDS011;53350;52.210;5.160;2022-11-20T12:57:20;28.25;;;16.83;;
66523;SDS011;53350;52.210;5.160;2022-11-20T13:00:01;35.22;;;19.55;;
66523;SDS011;53350;52.210;5.160;2022-11-20T13:02:37;33.17;;;18.30;;
66523;SDS011;53350;52.210;5.160;2022-11-20T13:05:21;35.47;;;19.20;;
66523;SDS011;53350;52.210;5.160;2022-11-20T13:07:55;35.80;;;19.83;;
66523;SDS011;53350;52.210;5.160;2022-11-20T13:10:26;37.40;;;20.87;;
66523;SDS011;53350;52.210;5.160;2022-11-20T13:13:00;34.45;;;18.20;;
66523;SDS011;53350;52.210;5.160;2022-11-20T13:15:39;39.28;;;20.52;;
66523;SDS011;53350;52.210;5.160;2022-11-20T13:18:13;37.83;;;20.88;;
66523;SDS011;53350;52.210;5.160;2022-11-20T13:20:41;34.75;;;19.60;;
66523;SDS011;53350;52.210;5.160;2022-11-20T13:23:09;37.83;;;19.63;;
66523;SDS011;53350;52.210;5.160;2022-11-20T13:25:37;31.58;;;17.63;;
66523;SDS011;53350;52.210;5.160;2022-11-20T13:30:54;36.08;;;20.50;;
66523;SDS011;53350;52.210;5.160;2022-11-20T13:33:22;35.42;;;22.02;;
66523;SDS011;53350;52.210;5.160;2022-11-20T13:35:57;37.28;;;21.33;;
66523;SDS011;53350;52.210;5.160;2022-11-20T13:38:25;38.72;;;21.10;;
66523;SDS011;53350;52.210;5.160;2022-11-20T13:40:54;38.67;;;20.65;;
66523;SDS011;53350;52.210;5.160;2022-11-20T13:43:23;31.00;;;18.38;;
66523;SDS011;53350;52.210;5.160;2022-11-20T13:45:58;35.70;;;20.02;;
66523;SDS011;53350;52.210;5.160;2022-11-20T13:48:29;36.08;;;19.40;;
66523;SDS011;53350;52.210;5.160;2022-11-20T13:51:03;29.95;;;18.10;;
66523;SDS011;53350;52.210;5.160;2022-11-20T13:53:43;32.60;;;17.73;;
66523;SDS011;53350;52.210;5.160;2022-11-20T13:56:23;35.58;;;19.95;;
66523;SDS011;53350;52.210;5.160;2022-11-20T13:58:59;40.45;;;22.00;;
66523;SDS011;53350;52.210;5.160;2022-11-20T14:01:31;36.20;;;20.23;;
66523;SDS011;53350;52.210;5.160;2022-11-20T14:03:59;34.80;;;18.83;;
66523;SDS011;53350;52.210;5.160;2022-11-20T14:06:33;33.47;;;18.52;;
66523;SDS011;53350;52.210;5.160;2022-11-20T14:09:05;36.92;;;20.92;;
66523;SDS011;53350;52.210;5.160;2022-11-20T14:11:32;38.20;;;19.95;;
66523;SDS011;53350;52.210;5.160;2022-11-20T14:14:00;27.17;;;15.75;;
66523;SDS011;53350;52.210;5.160;2022-11-20T14:18:55;23.05;;;11.82;;
66523;SDS011;53350;52.210;5.160;2022-11-20T14:21:27;28.00;;;17.83;;
66523;SDS011;53350;52.210;5.160;2022-11-20T14:24:02;30.90;;;18.70;;
66523;SDS011;53350;52.210;5.160;2022-11-20T14:26:29;37.22;;;23.35;;
66523;SDS011;53350;52.210;5.160;2022-11-20T14:28:58;37.10;;;20.95;;
66523;SDS011;53350;52.210;5.160;2022-11-20T14:31:25;35.90;;;18.50;;
66523;SDS011;53350;52.210;5.160;2022-11-20T14:33:53;36.70;;;20.58;;
66523;SDS011;53350;52.210;5.160;2022-11-20T14:36:21;34.33;;;19.65;;
66523;SDS011;53350;52.210;5.160;2022-11-20T14:38:49;37.08;;;20.35;;
66523;SDS011;53350;52.210;5.160;2022-11-20T14:41:18;32.92;;;18.48;;
66523;SDS011;53350;52.210;5.160;2022-11-20T14:43:47;33.75;;;18.70;;
66523;SDS011;53350;52.210;5.160;2022-11-20T14:46:20;27.58;;;14.65;;
66523;SDS011;53350;52.210;5.160;2022-11-20T14:48:48;37.65;;;20.13;;
66523;SDS011;53350;52.210;5.160;2022-11-20T14:51:23;34.97;;;18.73;;
66523;SDS011;53350;52.210;5.160;2022-11-20T14:53:54;36.03;;;20.70;;
66523;SDS011;53350;52.210;5.160;2022-11-20T14:56:21;32.53;;;18.20;;
66523;SDS011;53350;52.210;5.160;2022-11-20T14:58:55;35.08;;;19.70;;
66523;SDS011;53350;52.210;5.160;2022-11-20T15:01:26;38.03;;;19.98;;
66523;SDS011;53350;52.210;5.160;2022-11-20T15:03:58;37.70;;;22.30;;
66523;SDS011;53350;52.210;5.160;2022-11-20T15:06:26;37.53;;;22.00;;
66523;SDS011;53350;52.210;5.160;2022-11-20T15:08:54;39.03;;;20.73;;
66523;SDS011;53350;52.210;5.160;2022-11-20T15:11:23;31.52;;;19.15;;